Time;durP1;ratioP1;P1;durP2;ratioP2;P2;SDS_P1;SDS_P2;PMS_P1;PMS_P2;Temp;Humidity;BMP_temperature;BMP_pressure;BME280_temperature;BME280_humidity;BME280_pressure;Samples;Min_cycle;Max_cycle;Signal;HPM_P1;HPM_P2
2022/10/11 00:00:11;;;;;;;4.15;2.20;;;18.00;99.90;;;;;;4195309;28;20238;-73
2022/10/11 00:02:15;;;;;;;3.92;2.28;;;18.10;99.90;;;;;;4190222;28;20216;-73
2022/10/11 00:04:17;;;;;;;3.42;2.22;;;18.00;99.90;;;;;;4191148;28;20211;-73
2022/10/11 00:06:19;;;;;;;5.68;2.72;;;18.00;99.90;;;;;;4195983;28;20215;-73
2022/10/11 00:08:22;;;;;;;3.92;2.38;;;18.10;99.90;;;;;;4194935;28;20300;-73
2022/10/11 00:10:25;;;;;;;5.78;2.55;;;18.00;99.90;;;;;;4191245;28;20280;-73
2022/10/11 00:12:27;;;;;;;4.32;2.33;;;18.00;99.90;;;;;;4191163;28;20235;-73
2022/10/11 00:14:29;;;;;;;5.75;2.60;;;18.00;99.90;;;;;;4191583;28;20252;-73
2022/10/11 00:16:32;;;;;;;8.15;2.58;;;18.00;99.90;;;;;;4196105;28;20744;-73
2022/10/11 00:18:35;;;;;;;3.58;2.25;;;18.00;99.90;;;;;;4193291;28;20233;-73
2022/10/11 00:20:38;;;;;;;4.70;2.38;;;18.00;99.90;;;;;;4192233;28;20215;-73
2022/10/11 00:22:41;;;;;;;3.65;2.30;;;18.00;99.90;;;;;;4202920;28;20321;-73
2022/10/11 00:24:43;;;;;;;4.65;2.40;;;18.00;99.90;;;;;;4197870;28;20218;-73
2022/10/11 00:26:45;;;;;;;4.75;2.60;;;18.00;99.90;;;;;;4199571;28;20981;-73
2022/10/11 00:28:51;;;;;;;4.60;2.40;;;18.00;99.90;;;;;;4202344;28;20296;-73
2022/10/11 00:30:53;;;;;;;5.25;2.92;;;18.00;99.90;;;;;;4200828;28;20277;-73
2022/10/11 00:32:55;;;;;;;6.22;2.65;;;18.00;99.90;;;;;;4198844;28;20223;-73
2022/10/11 00:35:03;;;;;;;4.03;2.30;;;18.00;99.90;;;;;;4198813;28;20240;-73
2022/10/11 00:37:05;;;;;;;3.55;2.28;;;18.00;99.90;;;;;;4201322;28;20211;-73
2022/10/11 00:39:08;;;;;;;4.80;2.55;;;18.00;99.90;;;;;;4200178;28;20713;-73
2022/10/11 00:41:11;;;;;;;5.68;2.88;;;18.00;99.90;;;;;;4200095;28;20215;-73
2022/10/11 00:43:16;;;;;;;4.55;2.47;;;18.00;99.90;;;;;;4202913;28;20265;-73
2022/10/11 00:46:00;;;;;;;4.40;2.33;;;18.00;99.90;;;;;;4198247;28;20276;-73
2022/10/11 00:48:10;;;;;;;4.82;2.60;;;18.00;99.90;;;;;;4198462;28;20275;-73
2022/10/11 00:50:14;;;;;;;4.78;2.75;;;18.00;99.90;;;;;;4203538;28;20215;-73
2022/10/11 00:52:27;;;;;;;3.95;2.35;;;18.00;99.90;;;;;;4199113;28;20235;-73
2022/10/11 00:54:33;;;;;;;5.65;2.63;;;18.00;99.90;;;;;;4199877;28;20223;-73
2022/10/11 00:56:38;;;;;;;5.00;2.55;;;17.90;99.90;;;;;;4202949;28;20210;-73
2022/10/11 00:58:42;;;;;;;5.70;2.65;;;17.90;99.90;;;;;;4201122;28;20222;-73
2022/10/11 01:00:44;;;;;;;5.78;2.28;;;18.00;99.90;;;;;;4199796;28;20219;-73
2022/10/11 01:02:47;;;;;;;4.35;2.47;;;17.90;99.90;;;;;;4201876;28;20215;-73
2022/10/11 01:04:50;;;;;;;3.83;2.67;;;18.00;99.90;;;;;;4199176;28;20235;-73
2022/10/11 01:06:55;;;;;;;5.63;2.85;;;18.00;99.90;;;;;;4198645;28;20211;-73
2022/10/11 01:08:59;;;;;;;5.50;2.53;;;18.00;99.90;;;;;;4199336;28;20242;-73
2022/10/11 01:11:02;;;;;;;6.00;2.60;;;18.00;99.90;;;;;;4196196;28;20772;-73
2022/10/11 01:13:15;;;;;;;5.93;2.85;;;18.00;99.90;;;;;;4198002;28;20616;-73
2022/10/11 01:15:23;;;;;;;3.63;2.42;;;17.90;99.90;;;;;;4200873;28;20252;-73
2022/10/11 01:17:35;;;;;;;4.95;2.88;;;18.00;99.90;;;;;;4200460;28;20295;-73
2022/10/11 01:19:52;;;;;;;4.35;2.50;;;17.90;99.90;;;;;;4199653;28;20604;-73
2022/10/11 01:22:04;;;;;;;3.67;2.72;;;17.90;99.90;;;;;;4202079;28;20217;-73
2022/10/11 01:24:51;;;;;;;4.38;2.67;;;17.90;99.90;;;;;;4198013;28;20624;-73
2022/10/11 01:27:18;;;;;;;5.03;2.55;;;17.90;99.90;;;;;;4190330;28;20315;-73
2022/10/11 01:29:29;;;;;;;5.80;2.80;;;17.90;99.90;;;;;;4195416;28;20234;-73
2022/10/11 01:31:41;;;;;;;4.75;2.35;;;17.90;99.90;;;;;;4196064;28;20223;-73
2022/10/11 01:33:51;;;;;;;6.65;2.58;;;17.90;99.90;;;;;;4201297;28;20256;-73
2022/10/11 01:36:03;;;;;;;5.25;2.80;;;17.90;99.90;;;;;;4184016;28;20224;-73
2022/10/11 01:38:13;;;;;;;4.22;2.72;;;17.90;99.90;;;;;;4187811;28;20356;-73
2022/10/11 01:40:21;;;;;;;5.38;2.60;;;17.90;99.90;;;;;;4191671;28;20214;-73
2022/10/11 01:42:25;;;;;;;5.28;2.38;;;17.90;99.90;;;;;;4194638;28;20218;-73
2022/10/11 01:44:30;;;;;;;8.45;2.88;;;17.90;99.90;;;;;;4190945;28;20983;-73
2022/10/11 01:46:34;;;;;;;4.50;2.47;;;17.90;99.90;;;;;;4194441;28;20214;-73
2022/10/11 01:48:47;;;;;;;5.00;2.60;;;17.90;99.90;;;;;;4190396;28;20227;-73
2022/10/11 01:50:51;;;;;;;3.80;2.08;;;17.90;99.90;;;;;;4192727;28;20537;-73
2022/10/11 01:52:55;;;;;;;4.35;2.55;;;17.90;99.90;;;;;;4197936;28;20222;-73
2022/10/11 01:55:18;;;;;;;4.78;2.65;;;17.90;99.90;;;;;;4199596;28;20738;-73
2022/10/11 01:57:51;;;;;;;4.80;2.88;;;17.90;99.90;;;;;;4200979;28;20622;-73
2022/10/11 02:00:03;;;;;;;4.43;2.75;;;17.90;99.90;;;;;;4197184;28;20659;-73
2022/10/11 02:02:21;;;;;;;4.65;2.47;;;17.90;99.90;;;;;;4196313;28;20238;-73
2022/10/11 02:04:30;;;;;;;5.05;2.63;;;17.90;99.90;;;;;;4201926;28;20215;-73
2022/10/11 02:06:39;;;;;;;4.63;2.65;;;17.90;99.90;;;;;;4196890;28;20218;-73
2022/10/11 02:08:49;;;;;;;4.38;2.70;;;17.90;99.90;;;;;;4200271;28;20263;-73
2022/10/11 02:10:58;;;;;;;5.18;2.70;;;17.80;99.90;;;;;;4198352;28;20239;-73
2022/10/11 02:13:05;;;;;;;5.82;2.47;;;17.90;99.90;;;;;;4197259;28;20257;-73
2022/10/11 02:15:10;;;;;;;4.82;2.75;;;17.90;99.90;;;;;;4200281;28;20272;-73
2022/10/11 02:17:18;;;;;;;6.70;2.72;;;17.90;99.90;;;;;;4199532;28;20214;-73
2022/10/11 02:19:24;;;;;;;4.65;2.63;;;17.90;99.90;;;;;;4200842;28;20207;-73
2022/10/11 02:21:29;;;;;;;6.32;2.80;;;17.90;99.90;;;;;;4196682;28;20218;-73
2022/10/11 02:23:35;;;;;;;4.40;2.40;;;17.80;99.90;;;;;;4198222;28;20214;-73
2022/10/11 02:25:37;;;;;;;5.63;2.90;;;17.90;99.90;;;;;;4196886;28;20260;-73
2022/10/11 02:27:41;;;;;;;5.22;2.72;;;17.80;99.90;;;;;;4200218;28;20284;-72
2022/10/11 02:29:48;;;;;;;4.95;2.85;;;17.90;99.90;;;;;;4201609;28;20243;-72
2022/10/11 02:31:51;;;;;;;3.80;2.67;;;17.80;99.90;;;;;;4197757;28;20211;-75
2022/10/11 02:34:01;;;;;;;6.00;3.00;;;17.80;99.90;;;;;;4187565;28;20656;-75
2022/10/11 02:36:09;;;;;;;5.43;2.55;;;17.80;99.90;;;;;;4200162;28;20218;-75
2022/10/11 02:38:19;;;;;;;6.53;2.95;;;17.80;99.90;;;;;;4200326;28;20308;-75
2022/10/11 02:40:26;;;;;;;5.72;2.92;;;17.80;99.90;;;;;;4205192;28;20202;-75
2022/10/11 02:42:36;;;;;;;4.18;2.80;;;17.80;99.90;;;;;;4200869;28;20223;-75
2022/10/11 02:44:43;;;;;;;5.50;3.08;;;17.80;99.90;;;;;;4203243;28;20283;-75
2022/10/11 02:46:46;;;;;;;5.03;2.75;;;17.80;99.90;;;;;;4204476;28;20662;-75
2022/10/11 02:48:49;;;;;;;6.65;2.97;;;17.80;99.90;;;;;;4203625;28;20223;-76
2022/10/11 02:50:54;;;;;;;5.07;2.47;;;17.80;99.90;;;;;;4199338;28;20219;-76
2022/10/11 02:52:56;;;;;;;5.68;3.10;;;17.80;99.90;;;;;;4199179;28;20627;-76
2022/10/11 02:54:59;;;;;;;4.60;2.53;;;17.80;99.90;;;;;;4201048;28;20223;-76
2022/10/11 02:57:01;;;;;;;3.33;2.42;;;17.80;99.90;;;;;;4203808;28;20264;-76
2022/10/11 02:59:03;;;;;;;5.03;2.85;;;17.80;99.90;;;;;;4200757;28;20652;-75
2022/10/11 03:01:06;;;;;;;4.80;2.50;;;17.80;99.90;;;;;;4206515;28;20218;-76
2022/10/11 03:03:08;;;;;;;4.45;2.80;;;17.80;99.90;;;;;;4204532;28;20627;-75
2022/10/11 03:05:11;;;;;;;5.18;2.75;;;17.80;99.90;;;;;;4200326;28;20643;-75
2022/10/11 03:07:14;;;;;;;5.57;3.20;;;17.80;99.90;;;;;;4202567;28;20618;-76
2022/10/11 03:09:17;;;;;;;3.83;2.47;;;17.80;99.90;;;;;;4205401;28;20265;-75
2022/10/11 03:11:19;;;;;;;5.20;2.92;;;17.80;99.90;;;;;;4205939;28;20288;-76
2022/10/11 03:13:22;;;;;;;5.03;2.83;;;17.80;99.90;;;;;;4203468;28;20221;-75
2022/10/11 03:15:24;;;;;;;4.35;2.58;;;17.80;99.90;;;;;;4202451;28;20245;-75
2022/10/11 03:17:27;;;;;;;4.75;2.75;;;17.80;99.90;;;;;;4201157;28;20740;-75
2022/10/11 03:19:29;;;;;;;4.70;2.70;;;17.80;99.90;;;;;;4203108;28;20264;-75
2022/10/11 03:21:31;;;;;;;3.17;2.47;;;17.80;99.90;;;;;;4203218;28;20275;-75
2022/10/11 03:23:35;;;;;;;4.20;2.72;;;17.80;99.90;;;;;;4207404;28;20287;-75
2022/10/11 03:25:38;;;;;;;4.35;2.40;;;17.80;99.90;;;;;;4203242;28;20262;-75
2022/10/11 03:27:40;;;;;;;4.65;2.67;;;17.80;99.90;;;;;;4204139;28;20708;-75
2022/10/11 03:29:42;;;;;;;4.30;2.72;;;17.70;99.90;;;;;;4203829;28;20294;-76
2022/10/11 03:31:45;;;;;;;6.53;3.05;;;17.70;99.90;;;;;;4202808;28;20263;-75
2022/10/11 03:33:47;;;;;;;7.93;3.03;;;17.80;99.90;;;;;;4207700;28;20271;-76
2022/10/11 03:35:49;;;;;;;5.80;2.60;;;17.70;99.90;;;;;;4205140;28;20210;-75
2022/10/11 03:37:52;;;;;;;4.65;2.60;;;17.70;99.90;;;;;;4200385;28;20222;-76
2022/10/11 03:39:55;;;;;;;4.80;2.75;;;17.70;99.90;;;;;;4202631;28;20264;-75
2022/10/11 03:41:58;;;;;;;4.90;2.88;;;17.70;99.90;;;;;;4203066;28;20295;-75
2022/10/11 03:44:00;;;;;;;5.88;3.05;;;17.70;99.90;;;;;;4204150;28;20257;-75
2022/10/11 03:46:02;;;;;;;5.35;2.80;;;17.80;99.90;;;;;;4201371;28;20289;-75
2022/10/11 03:48:05;;;;;;;4.78;2.63;;;17.80;99.90;;;;;;4204172;28;20234;-75
2022/10/11 03:50:09;;;;;;;5.47;2.90;;;17.80;99.90;;;;;;4197234;28;20774;-75
2022/10/11 03:52:11;;;;;;;4.68;2.50;;;17.70;99.90;;;;;;4204377;28;20254;-75
2022/10/11 03:54:14;;;;;;;6.03;2.88;;;17.70;99.90;;;;;;4200645;28;20273;-75
2022/10/11 03:56:17;;;;;;;4.55;2.67;;;17.70;99.90;;;;;;4197659;28;20223;-75
2022/10/11 03:58:20;;;;;;;6.78;3.08;;;17.70;99.90;;;;;;4201785;28;20229;-75
2022/10/11 04:00:22;;;;;;;5.35;2.47;;;17.70;99.90;;;;;;4207961;28;20759;-75
2022/10/11 04:02:25;;;;;;;4.78;2.42;;;17.70;99.90;;;;;;4201111;28;20662;-76
2022/10/11 04:04:27;;;;;;;7.78;3.10;;;17.70;99.90;;;;;;4199872;28;20952;-75
2022/10/11 04:06:29;;;;;;;5.18;2.55;;;17.70;99.90;;;;;;4204462;28;20227;-75
2022/10/11 04:08:32;;;;;;;5.47;2.75;;;17.70;99.90;;;;;;4203463;28;20276;-75
2022/10/11 04:10:34;;;;;;;4.60;2.80;;;17.70;99.90;;;;;;4201335;28;20231;-75
2022/10/11 04:12:38;;;;;;;4.95;2.67;;;17.70;99.90;;;;;;4203561;28;20276;-75
2022/10/11 04:14:43;;;;;;;5.70;2.50;;;17.70;99.90;;;;;;4206855;28;20233;-75
2022/10/11 04:16:45;;;;;;;4.75;2.90;;;17.70;99.90;;;;;;4201065;28;20219;-75
2022/10/11 04:18:47;;;;;;;5.45;2.53;;;17.70;99.90;;;;;;4200791;28;20220;-75
2022/10/11 04:20:50;;;;;;;7.13;3.08;;;17.70;99.90;;;;;;4205126;28;20275;-75
2022/10/11 04:22:52;;;;;;;4.70;2.42;;;17.70;99.90;;;;;;4201937;28;20218;-75
2022/10/11 04:24:54;;;;;;;3.95;2.30;;;17.70;99.90;;;;;;4200771;28;20281;-76
2022/10/11 04:26:56;;;;;;;5.05;2.75;;;17.70;99.90;;;;;;4201832;28;20283;-75
2022/10/11 04:29:00;;;;;;;4.60;2.65;;;17.70;99.90;;;;;;4206032;28;20260;-75
2022/10/11 04:31:04;;;;;;;4.30;2.60;;;17.70;99.90;;;;;;4203644;28;20223;-75
2022/10/11 04:33:06;;;;;;;5.50;2.88;;;17.70;99.90;;;;;;4204348;28;20215;-75
2022/10/11 04:35:09;;;;;;;6.43;2.83;;;17.70;99.90;;;;;;4204551;28;20728;-75
2022/10/11 04:37:11;;;;;;;4.40;2.65;;;17.70;99.90;;;;;;4201039;28;20219;-75
2022/10/11 04:39:14;;;;;;;4.60;2.70;;;17.70;99.90;;;;;;4207764;28;20214;-75
2022/10/11 04:41:16;;;;;;;4.47;2.85;;;17.70;99.90;;;;;;4201304;28;20211;-75
2022/10/11 04:43:19;;;;;;;4.60;2.55;;;17.70;99.90;;;;;;4206356;28;20267;-75
2022/10/11 04:45:22;;;;;;;5.93;2.75;;;17.60;99.90;;;;;;4201256;28;20559;-75
2022/10/11 04:47:25;;;;;;;5.20;3.00;;;17.70;99.90;;;;;;4204408;28;20269;-75
2022/10/11 04:49:27;;;;;;;5.57;2.92;;;17.70;99.90;;;;;;4202184;28;20272;-76
2022/10/11 04:51:29;;;;;;;5.53;2.90;;;17.70;99.90;;;;;;4200971;28;20247;-75
2022/10/11 04:53:32;;;;;;;4.18;2.60;;;17.70;99.90;;;;;;4207841;28;20210;-75
2022/10/11 04:55:34;;;;;;;3.85;2.50;;;17.70;99.90;;;;;;4201288;28;20222;-75
2022/10/11 04:57:36;;;;;;;6.20;2.60;;;17.60;99.90;;;;;;4200566;28;20252;-75
2022/10/11 04:59:38;;;;;;;4.55;2.67;;;17.70;99.90;;;;;;4195684;28;20228;-76
2022/10/11 05:01:42;;;;;;;5.32;3.25;;;17.70;99.90;;;;;;4197631;28;20253;-75
2022/10/11 05:03:44;;;;;;;5.35;2.70;;;17.70;99.90;;;;;;4201354;28;20223;-75
2022/10/11 05:05:47;;;;;;;5.82;2.70;;;17.70;99.90;;;;;;4203075;28;20733;-76
2022/10/11 05:07:49;;;;;;;3.60;2.45;;;17.70;99.90;;;;;;4201012;28;20227;-75
2022/10/11 05:09:51;;;;;;;6.18;2.92;;;17.70;99.90;;;;;;4201963;28;20265;-75
2022/10/11 05:11:53;;;;;;;3.67;2.60;;;17.70;99.90;;;;;;4201190;28;20231;-75
2022/10/11 05:13:56;;;;;;;8.45;3.35;;;17.70;99.90;;;;;;4203640;28;20255;-75
2022/10/11 05:15:58;;;;;;;7.68;2.97;;;17.70;99.90;;;;;;4202337;28;20251;-74
2022/10/11 05:18:02;;;;;;;5.85;2.85;;;17.70;99.90;;;;;;4204766;28;20222;-75
2022/10/11 05:20:05;;;;;;;5.18;2.65;;;17.70;99.90;;;;;;4204661;28;20295;-75
2022/10/11 05:22:08;;;;;;;6.25;2.65;;;17.70;99.90;;;;;;4203544;28;20260;-75
2022/10/11 05:24:10;;;;;;;4.97;2.67;;;17.70;99.90;;;;;;4199027;28;20723;-75
2022/10/11 05:26:12;;;;;;;6.35;2.85;;;17.70;99.90;;;;;;4201665;28;20227;-75
2022/10/11 05:28:15;;;;;;;4.85;2.53;;;17.70;99.90;;;;;;4201341;28;20222;-75
2022/10/11 05:30:17;;;;;;;4.88;3.00;;;17.70;99.90;;;;;;4204871;28;20215;-75
2022/10/11 05:32:19;;;;;;;3.75;2.45;;;17.70;99.90;;;;;;4198570;28;20283;-76
2022/10/11 05:34:23;;;;;;;5.82;2.85;;;17.70;99.90;;;;;;4201246;28;20264;-75
2022/10/11 05:36:25;;;;;;;5.72;2.72;;;17.70;99.90;;;;;;4202608;28;20223;-76
2022/10/11 05:38:28;;;;;;;5.78;2.97;;;17.70;99.90;;;;;;4199523;28;20211;-75
2022/10/11 05:40:32;;;;;;;5.20;2.45;;;17.70;99.90;;;;;;4202007;28;20558;-76
2022/10/11 05:42:34;;;;;;;5.15;2.60;;;17.70;99.90;;;;;;4202734;28;20612;-75
2022/10/11 05:44:36;;;;;;;4.85;2.78;;;17.70;99.90;;;;;;4199280;28;20279;-76
2022/10/11 05:46:39;;;;;;;5.07;2.67;;;17.70;99.90;;;;;;4201095;28;20312;-75
2022/10/11 05:48:41;;;;;;;6.80;2.70;;;17.70;99.90;;;;;;4199227;28;20299;-75
2022/10/11 05:50:45;;;;;;;5.18;2.83;;;17.70;99.90;;;;;;4200852;28;20263;-76
2022/10/11 05:52:47;;;;;;;5.88;2.70;;;17.70;99.90;;;;;;4203211;28;20603;-76
2022/10/11 05:54:49;;;;;;;3.50;2.47;;;17.70;99.90;;;;;;4201302;28;20292;-75
2022/10/11 05:56:52;;;;;;;5.75;2.88;;;17.70;99.90;;;;;;4202585;28;20269;-75
2022/10/11 05:58:54;;;;;;;4.68;2.60;;;17.70;99.90;;;;;;4200671;28;20222;-76
2022/10/11 06:00:57;;;;;;;3.95;2.53;;;17.70;99.90;;;;;;4202362;28;20219;-75
2022/10/11 06:02:59;;;;;;;4.63;2.85;;;17.70;99.90;;;;;;4201694;28;20287;-76
2022/10/11 06:05:02;;;;;;;4.10;2.45;;;17.70;99.90;;;;;;4198717;28;20219;-75
2022/10/11 06:07:06;;;;;;;5.13;2.30;;;17.70;99.90;;;;;;4197372;28;20249;-75
2022/10/11 06:09:08;;;;;;;6.07;3.30;;;17.70;99.90;;;;;;4200011;28;20215;-76
2022/10/11 06:11:13;;;;;;;5.57;3.20;;;17.70;99.90;;;;;;4201233;28;20285;-75
2022/10/11 06:13:15;;;;;;;4.93;2.83;;;17.70;99.90;;;;;;4198125;28;20214;-75
2022/10/11 06:15:18;;;;;;;3.58;2.55;;;17.70;99.90;;;;;;4202401;28;20206;-76
2022/10/11 06:17:21;;;;;;;5.53;2.53;;;17.70;99.90;;;;;;4201027;28;20682;-75
2022/10/11 06:19:24;;;;;;;3.92;2.50;;;17.70;99.90;;;;;;4202424;28;20246;-76
2022/10/11 06:21:26;;;;;;;5.10;2.90;;;17.70;99.90;;;;;;4198953;28;20214;-75
2022/10/11 06:23:30;;;;;;;3.42;2.60;;;17.70;99.90;;;;;;4203213;28;20272;-75
2022/10/11 06:25:32;;;;;;;4.80;2.65;;;17.70;99.90;;;;;;4200147;28;20328;-76
2022/10/11 06:27:34;;;;;;;4.10;2.88;;;17.70;99.90;;;;;;4204189;28;20218;-75
2022/10/11 06:29:37;;;;;;;4.82;3.08;;;17.70;99.90;;;;;;4199522;28;20272;-75
2022/10/11 06:31:39;;;;;;;6.05;2.78;;;17.70;99.90;;;;;;4208940;28;20279;-75
2022/10/11 06:33:41;;;;;;;5.57;3.00;;;17.70;99.90;;;;;;4203272;28;20222;-75
2022/10/11 06:35:44;;;;;;;4.95;3.10;;;17.70;99.90;;;;;;4204314;28;20271;-75
2022/10/11 06:37:46;;;;;;;5.38;3.10;;;17.70;99.90;;;;;;4205202;28;20272;-75
2022/10/11 06:39:50;;;;;;;3.85;2.47;;;17.70;99.90;;;;;;4203923;28;20222;-75
2022/10/11 06:41:52;;;;;;;6.30;3.03;;;17.70;99.90;;;;;;4204311;28;20255;-76
2022/10/11 06:43:55;;;;;;;4.78;2.30;;;17.70;99.90;;;;;;4203687;28;20227;-75
2022/10/11 06:45:59;;;;;;;4.15;2.55;;;17.70;99.90;;;;;;4205663;28;20219;-75
2022/10/11 06:48:04;;;;;;;4.43;2.63;;;17.70;99.90;;;;;;4203328;28;20847;-75
2022/10/11 06:50:07;;;;;;;6.40;2.63;;;17.70;99.90;;;;;;4203239;28;20219;-75
2022/10/11 06:52:09;;;;;;;4.90;2.88;;;17.70;99.90;;;;;;4207778;28;20235;-75
2022/10/11 06:54:12;;;;;;;5.22;2.90;;;17.70;99.90;;;;;;4202817;28;20223;-75
2022/10/11 06:56:15;;;;;;;7.57;2.47;;;17.70;99.90;;;;;;4204718;28;20288;-76
2022/10/11 06:58:18;;;;;;;4.65;2.85;;;17.60;99.90;;;;;;4205365;28;20252;-77
2022/10/11 07:00:20;;;;;;;4.15;2.65;;;17.60;99.90;;;;;;4187673;28;20226;-77
2022/10/11 07:02:22;;;;;;;5.00;3.03;;;17.70;99.90;;;;;;4202604;28;20223;-77
2022/10/11 07:04:27;;;;;;;5.25;3.15;;;17.70;99.90;;;;;;4188531;28;20222;-77
2022/10/11 07:06:31;;;;;;;5.10;2.90;;;17.70;99.90;;;;;;4189325;28;20222;-77
2022/10/11 07:08:33;;;;;;;4.78;2.80;;;17.80;99.90;;;;;;4193191;28;20211;-76
2022/10/11 07:10:36;;;;;;;6.90;2.90;;;17.80;99.90;;;;;;4194850;28;20282;-77
2022/10/11 07:12:43;;;;;;;3.53;2.95;;;17.80;99.90;;;;;;4190677;28;20684;-77
2022/10/11 07:14:45;;;;;;;5.05;2.90;;;17.70;99.90;;;;;;4196325;28;20219;-77
2022/10/11 07:16:48;;;;;;;6.00;3.03;;;17.70;99.90;;;;;;4184631;28;20276;-77
2022/10/11 07:18:53;;;;;;;4.72;2.78;;;17.70;99.90;;;;;;4191333;28;20207;-76
2022/10/11 07:20:55;;;;;;;7.03;3.00;;;17.90;99.90;;;;;;4194642;28;20272;-77
2022/10/11 07:23:01;;;;;;;6.80;3.20;;;17.80;99.90;;;;;;4190691;28;20219;-76
2022/10/11 07:25:04;;;;;;;3.85;2.63;;;17.80;99.90;;;;;;4186567;28;20219;-77
2022/10/11 07:27:07;;;;;;;6.07;2.67;;;17.90;99.90;;;;;;4181505;28;20211;-78
2022/10/11 07:29:11;;;;;;;7.55;3.08;;;17.90;99.90;;;;;;4189323;28;20219;-77
2022/10/11 07:31:16;;;;;;;5.18;3.10;;;18.00;99.90;;;;;;4189162;28;20215;-79
2022/10/11 07:33:19;;;;;;;4.38;2.70;;;18.10;99.90;;;;;;4190437;28;20251;-80
2022/10/11 07:35:21;;;;;;;6.72;3.17;;;18.20;99.90;;;;;;4188796;28;20226;-81
2022/10/11 07:37:23;;;;;;;7.20;3.05;;;18.10;99.90;;;;;;4181958;28;20664;-79
2022/10/11 07:39:25;;;;;;;9.18;3.30;;;18.10;99.90;;;;;;4187271;28;20210;-79
2022/10/11 07:41:28;;;;;;;4.97;3.10;;;18.10;99.90;;;;;;4190336;28;20252;-77
2022/10/11 07:43:30;;;;;;;5.68;2.88;;;18.10;99.90;;;;;;4192768;28;20203;-78
2022/10/11 07:45:34;;;;;;;6.80;2.83;;;18.10;99.90;;;;;;4186186;28;20959;-79
2022/10/11 07:47:36;;;;;;;6.20;2.95;;;18.20;99.90;;;;;;4187724;28;20216;-79
2022/10/11 07:49:39;;;;;;;5.32;2.92;;;18.20;99.90;;;;;;4189753;28;20216;-77
2022/10/11 07:51:41;;;;;;;6.60;3.00;;;18.30;99.90;;;;;;4189252;28;20219;-77
2022/10/11 07:53:45;;;;;;;7.82;3.25;;;18.30;99.90;;;;;;4182995;28;20211;-74
2022/10/11 07:55:47;;;;;;;5.75;3.22;;;18.30;99.90;;;;;;4187595;28;20745;-75
2022/10/11 07:57:50;;;;;;;9.63;3.97;;;18.40;99.90;;;;;;4192634;28;20591;-76
2022/10/11 07:59:52;;;;;;;5.95;2.90;;;18.40;99.90;;;;;;4188877;28;20293;-75
2022/10/11 08:01:56;;;;;;;5.35;2.97;;;18.40;99.90;;;;;;4188473;28;20211;-76
2022/10/11 08:03:59;;;;;;;6.47;3.40;;;18.40;99.90;;;;;;4190786;28;20308;-76
2022/10/11 08:06:01;;;;;;;5.97;3.17;;;18.50;99.90;;;;;;4188839;28;20237;-75
2022/10/11 08:08:04;;;;;;;7.78;3.30;;;18.30;99.90;;;;;;4187241;28;20215;-75
2022/10/11 08:10:08;;;;;;;6.97;3.33;;;18.40;99.90;;;;;;4188624;28;20219;-75
2022/10/11 08:12:10;;;;;;;6.15;2.75;;;18.40;99.90;;;;;;4181695;28;20235;-75
2022/10/11 08:14:13;;;;;;;6.28;3.22;;;18.40;99.90;;;;;;4188956;28;20207;-75
2022/10/11 08:16:15;;;;;;;8.30;3.17;;;18.40;99.90;;;;;;4194468;28;20215;-75
2022/10/11 08:18:19;;;;;;;8.23;3.13;;;18.40;99.90;;;;;;4192797;28;20643;-75
2022/10/11 08:20:21;;;;;;;5.43;2.78;;;18.40;99.90;;;;;;4183559;28;20215;-74
2022/10/11 08:22:24;;;;;;;6.70;3.28;;;18.40;99.90;;;;;;4188296;28;20211;-74
2022/10/11 08:24:26;;;;;;;8.05;3.22;;;18.40;99.90;;;;;;4183953;28;20273;-74
2022/10/11 08:26:29;;;;;;;4.55;3.03;;;18.40;99.90;;;;;;4195272;28;20215;-74
2022/10/11 08:28:31;;;;;;;6.53;3.17;;;18.40;99.90;;;;;;4189609;28;20273;-75
2022/10/11 08:30:37;;;;;;;7.57;3.08;;;18.40;99.90;;;;;;4189308;28;20215;-76
2022/10/11 08:32:39;;;;;;;7.70;2.80;;;18.40;99.90;;;;;;4194866;28;20230;-74
2022/10/11 08:34:42;;;;;;;8.15;3.30;;;18.40;99.90;;;;;;4182114;28;20287;-73
2022/10/11 08:36:47;;;;;;;8.65;3.50;;;18.40;99.90;;;;;;4186370;28;20220;-73
2022/10/11 08:38:49;;;;;;;6.50;3.33;;;18.40;99.90;;;;;;4201004;28;20268;-74
2022/10/11 08:40:55;;;;;;;7.40;3.03;;;18.40;99.90;;;;;;4198947;28;20237;-73
2022/10/11 08:43:02;;;;;;;9.63;3.28;;;18.50;99.90;;;;;;4200577;28;20234;-74
2022/10/11 08:45:09;;;;;;;9.02;3.15;;;18.40;99.90;;;;;;4194018;28;20215;-72
2022/10/11 08:47:19;;;;;;;6.35;3.33;;;18.40;99.90;;;;;;4191560;28;20297;-72
2022/10/11 08:49:26;;;;;;;5.55;3.00;;;18.40;99.90;;;;;;4194173;28;20219;-72
2022/10/11 08:51:33;;;;;;;6.65;2.70;;;18.50;99.90;;;;;;4191950;28;20265;-72
2022/10/11 08:53:43;;;;;;;9.25;3.05;;;18.50;99.90;;;;;;4197452;28;20313;-72
2022/10/11 08:57:40;;;;;;;8.43;3.20;;;18.50;99.90;;;;;;4192747;27;24581;-73
2022/10/11 08:59:49;;;;;;;7.18;3.08;;;18.50;99.90;;;;;;4188698;28;20215;-72
2022/10/11 09:01:58;;;;;;;9.38;3.42;;;19.10;99.90;;;;;;4189230;28;20321;-71
2022/10/11 09:04:02;;;;;;;7.63;3.00;;;20.90;99.90;;;;;;4193961;28;20215;-71
2022/10/11 09:06:12;;;;;;;6.38;3.08;;;22.30;99.90;;;;;;4194290;28;20613;-70
2022/10/11 09:08:22;;;;;;;7.45;3.03;;;23.80;99.90;;;;;;4195052;28;20275;-71
2022/10/11 09:10:44;;;;;;;6.80;2.95;;;25.00;99.90;;;;;;4195700;28;20218;-73
2022/10/11 09:12:58;;;;;;;5.90;3.10;;;25.60;99.90;;;;;;4182962;28;20283;-75
2022/10/11 09:15:16;;;;;;;8.20;3.20;;;29.80;94.60;;;;;;4197936;28;21073;-74
2022/10/11 09:17:31;;;;;;;6.80;3.28;;;32.20;83.70;;;;;;4192849;28;20230;-75
2022/10/11 09:20:03;;;;;;;5.57;2.80;;;31.70;77.60;;;;;;4195980;28;20350;-75
2022/10/11 09:22:14;;;;;;;6.57;2.60;;;31.70;76.30;;;;;;4194165;28;20741;-75
2022/10/11 09:24:28;;;;;;;7.22;2.97;;;30.80;78.40;;;;;;4191178;28;20219;-75
2022/10/11 09:26:39;;;;;;;6.85;3.20;;;31.60;76.10;;;;;;4194939;28;20219;-75
2022/10/11 09:28:56;;;;;;;5.47;3.10;;;32.50;72.00;;;;;;4188931;28;20276;-74
2022/10/11 09:30:59;;;;;;;7.60;2.92;;;32.10;69.70;;;;;;4191934;28;20219;-75
2022/10/11 09:33:10;;;;;;;12.63;3.22;;;33.30;67.00;;;;;;4189735;28;20279;-75
2022/10/11 09:35:15;;;;;;;6.00;2.90;;;33.00;64.80;;;;;;4192211;28;20218;-75
2022/10/11 09:37:23;;;;;;;4.45;3.03;;;32.80;66.20;;;;;;4196096;28;20318;-76
2022/10/11 09:39:30;;;;;;;7.00;2.58;;;31.30;68.30;;;;;;4194529;28;20227;-76
2022/10/11 09:41:38;;;;;;;4.40;2.80;;;30.90;69.80;;;;;;4192423;28;20215;-75
2022/10/11 09:43:41;;;;;;;6.15;2.63;;;31.30;69.90;;;;;;4195409;28;20450;-76
2022/10/11 09:45:45;;;;;;;5.88;2.65;;;31.90;67.20;;;;;;4196564;28;20218;-79
2022/10/11 09:47:50;;;;;;;6.35;2.50;;;32.70;65.40;;;;;;4189342;28;20296;-76
2022/10/11 09:49:57;;;;;;;5.25;2.65;;;33.10;63.30;;;;;;4194423;28;20264;-78
2022/10/11 09:52:02;;;;;;;3.30;2.47;;;33.20;62.80;;;;;;4187737;28;20272;-72
2022/10/11 09:54:06;;;;;;;6.03;2.53;;;32.80;63.60;;;;;;4187017;28;20261;-71
2022/10/11 09:56:08;;;;;;;4.93;2.65;;;30.90;67.20;;;;;;4186215;28;20261;-72
2022/10/11 09:58:27;;;;;;;22.92;3.67;;;30.80;69.40;;;;;;4185033;28;20219;-72
2022/10/11 10:00:32;;;;;;;6.97;3.00;;;30.70;70.60;;;;;;4186167;28;20672;-76
2022/10/11 10:02:42;;;;;;;6.05;2.72;;;29.10;72.70;;;;;;4185963;28;20212;-74
2022/10/11 10:04:55;;;;;;;6.13;2.72;;;29.10;75.20;;;;;;4187346;28;20268;-78
2022/10/11 10:07:11;;;;;;;7.68;3.08;;;28.90;76.70;;;;;;4181621;28;20212;-79
2022/10/11 10:09:25;;;;;;;11.00;3.05;;;28.70;76.10;;;;;;4166990;28;20207;-75
2022/10/11 10:11:36;;;;;;;9.27;2.95;;;28.20;78.80;;;;;;4173726;28;20284;-78
2022/10/11 10:13:44;;;;;;;11.30;3.25;;;27.20;82.80;;;;;;4177386;28;20737;-77
2022/10/11 10:15:49;;;;;;;17.95;3.03;;;26.70;85.40;;;;;;4183727;28;20223;-77
2022/10/11 10:17:53;;;;;;;8.60;2.97;;;27.10;85.20;;;;;;4181892;28;20627;-76
2022/10/11 10:19:59;;;;;;;7.20;2.65;;;27.50;83.70;;;;;;4178917;28;20223;-77
2022/10/11 10:22:02;;;;;;;7.72;2.95;;;27.60;83.20;;;;;;4181076;28;20220;-77
2022/10/11 10:24:08;;;;;;;8.20;3.10;;;27.60;83.10;;;;;;4178455;28;20268;-78
2022/10/11 10:26:17;;;;;;;8.05;3.03;;;27.10;85.30;;;;;;4180017;28;20253;-78
2022/10/11 10:28:22;;;;;;;6.18;2.95;;;27.10;86.20;;;;;;4186671;28;20269;-77
2022/10/11 10:30:27;;;;;;;6.53;2.40;;;27.10;86.70;;;;;;4175659;28;20321;-77
2022/10/11 10:32:36;;;;;;;8.45;2.92;;;27.50;84.10;;;;;;4168690;28;20216;-74
2022/10/11 10:34:52;;;;;;;4.40;2.65;;;27.80;84.70;;;;;;4176021;28;20618;-72
2022/10/11 10:37:00;;;;;;;5.20;2.67;;;28.30;83.00;;;;;;4171212;28;20244;-75
2022/10/11 10:39:08;;;;;;;5.65;2.72;;;28.70;81.50;;;;;;4178495;28;20211;-75
2022/10/11 10:41:14;;;;;;;6.57;2.70;;;28.70;82.30;;;;;;4182451;28;20208;-75
2022/10/11 10:43:17;;;;;;;10.98;2.92;;;28.10;83.70;;;;;;4179497;28;21234;-74
2022/10/11 10:45:26;;;;;;;8.32;2.67;;;27.70;85.10;;;;;;4169130;28;20219;-74
2022/10/11 10:47:50;;;;;;;8.68;2.90;;;27.80;85.10;;;;;;4179552;28;21599;-74
2022/10/11 10:50:00;;;;;;;6.15;2.83;;;28.20;83.30;;;;;;4181167;28;20211;-75
2022/10/11 10:52:40;;;;;;;11.52;3.13;;;29.00;82.60;;;;;;4180216;28;20212;-75